sensor_id;sensor_type;location;lat;lon;timestamp;P1;durP1;ratioP1;P2;durP2;ratioP2
48881;SDS011;57063;51.406;-2.402;2023-04-03T00:01:22;16.30;;;2.67;;
48881;SDS011;57063;51.406;-2.402;2023-04-03T00:03:48;11.75;;;3.70;;
48881;SDS011;57063;51.406;-2.402;2023-04-03T00:06:13;9.30;;;2.72;;
48881;SDS011;57063;51.406;-2.402;2023-04-03T00:08:39;8.48;;;2.42;;
48881;SDS011;57063;51.406;-2.402;2023-04-03T00:11:05;9.60;;;2.90;;
48881;SDS011;57063;51.406;-2.402;2023-04-03T00:13:31;9.35;;;2.28;;
48881;SDS011;57063;51.406;-2.402;2023-04-03T00:15:58;10.57;;;3.03;;
48881;SDS011;57063;51.406;-2.402;2023-04-03T00:18:24;8.70;;;2.83;;
48881;SDS011;57063;51.406;-2.402;2023-04-03T00:20:49;11.15;;;3.00;;
48881;SDS011;57063;51.406;-2.402;2023-04-03T00:23:15;11.82;;;3.05;;
48881;SDS011;57063;51.406;-2.402;2023-04-03T00:25:41;7.50;;;2.47;;
48881;SDS011;57063;51.406;-2.402;2023-04-03T00:28:07;10.10;;;2.33;;
48881;SDS011;57063;51.406;-2.402;2023-04-03T00:30:33;15.65;;;4.00;;
48881;SDS011;57063;51.406;-2.402;2023-04-03T00:32:59;10.80;;;2.75;;
48881;SDS011;57063;51.406;-2.402;2023-04-03T00:35:25;14.95;;;3.00;;
48881;SDS011;57063;51.406;-2.402;2023-04-03T00:37:51;6.00;;;2.70;;
48881;SDS011;57063;51.406;-2.402;2023-04-03T00:40:18;7.40;;;2.53;;
48881;SDS011;57063;51.406;-2.402;2023-04-03T00:42:45;8.93;;;3.05;;
48881;SDS011;57063;51.406;-2.402;2023-04-03T00:47:53;13.85;;;2.90;;
48881;SDS011;57063;51.406;-2.402;2023-04-03T00:50:19;9.05;;;3.10;;
48881;SDS011;57063;51.406;-2.402;2023-04-03T00:52:45;10.18;;;3.63;;
48881;SDS011;57063;51.406;-2.402;2023-04-03T00:55:13;6.85;;;3.15;;
48881;SDS011;57063;51.406;-2.402;2023-04-03T00:57:39;8.65;;;2.42;;
48881;SDS011;57063;51.406;-2.402;2023-04-03T01:00:06;12.00;;;4.32;;
48881;SDS011;57063;51.406;-2.402;2023-04-03T01:02:34;8.20;;;2.90;;
48881;SDS011;57063;51.406;-2.402;2023-04-03T01:05:01;10.52;;;3.17;;
48881;SDS011;57063;51.406;-2.402;2023-04-03T01:07:27;8.40;;;2.67;;
48881;SDS011;57063;51.406;-2.402;2023-04-03T01:09:56;12.50;;;3.72;;
48881;SDS011;57063;51.406;-2.402;2023-04-03T01:14:58;9.15;;;3.63;;
48881;SDS011;57063;51.406;-2.402;2023-04-03T01:17:39;9.57;;;2.72;;
48881;SDS011;57063;51.406;-2.402;2023-04-03T01:28:06;8.40;;;3.30;;
48881;SDS011;57063;51.406;-2.402;2023-04-03T01:30:34;9.55;;;3.03;;
48881;SDS011;57063;51.406;-2.402;2023-04-03T01:33:06;9.02;;;2.75;;
48881;SDS011;57063;51.406;-2.402;2023-04-03T01:35:31;15.52;;;3.05;;
48881;SDS011;57063;51.406;-2.402;2023-04-03T01:37:57;7.43;;;2.90;;
48881;SDS011;57063;51.406;-2.402;2023-04-03T01:40:22;10.20;;;3.15;;
48881;SDS011;57063;51.406;-2.402;2023-04-03T01:42:48;5.65;;;2.95;;
48881;SDS011;57063;51.406;-2.402;2023-04-03T01:45:13;7.20;;;2.88;;
48881;SDS011;57063;51.406;-2.402;2023-04-03T01:47:38;8.20;;;2.83;;
48881;SDS011;57063;51.406;-2.402;2023-04-03T01:50:04;12.35;;;3.00;;
48881;SDS011;57063;51.406;-2.402;2023-04-03T01:52:30;8.40;;;3.13;;
48881;SDS011;57063;51.406;-2.402;2023-04-03T01:54:55;9.13;;;2.40;;
48881;SDS011;57063;51.406;-2.402;2023-04-03T01:57:21;12.75;;;3.05;;
48881;SDS011;57063;51.406;-2.402;2023-04-03T01:59:46;8.43;;;3.15;;
48881;SDS011;57063;51.406;-2.402;2023-04-03T02:02:11;13.55;;;2.63;;
48881;SDS011;57063;51.406;-2.402;2023-04-03T02:04:39;10.18;;;3.03;;
48881;SDS011;57063;51.406;-2.402;2023-04-03T02:07:05;6.93;;;2.80;;
48881;SDS011;57063;51.406;-2.402;2023-04-03T02:09:30;8.93;;;3.72;;
48881;SDS011;57063;51.406;-2.402;2023-04-03T02:11:56;8.23;;;3.03;;
48881;SDS011;57063;51.406;-2.402;2023-04-03T02:14:21;9.10;;;3.30;;
48881;SDS011;57063;51.406;-2.402;2023-04-03T02:16:48;12.50;;;3.63;;
48881;SDS011;57063;51.406;-2.402;2023-04-03T02:19:14;6.43;;;2.13;;
48881;SDS011;57063;51.406;-2.402;2023-04-03T02:21:39;11.10;;;2.72;;
48881;SDS011;57063;51.406;-2.402;2023-04-03T02:24:05;8.65;;;2.97;;
48881;SDS011;57063;51.406;-2.402;2023-04-03T02:26:31;9.68;;;2.55;;
48881;SDS011;57063;51.406;-2.402;2023-04-03T02:28:56;9.75;;;2.88;;
48881;SDS011;57063;51.406;-2.402;2023-04-03T02:31:22;5.28;;;2.85;;
48881;SDS011;57063;51.406;-2.402;2023-04-03T02:33:47;6.45;;;2.33;;
48881;SDS011;57063;51.406;-2.402;2023-04-03T02:36:13;7.13;;;2.17;;
48881;SDS011;57063;51.406;-2.402;2023-04-03T02:38:38;4.45;;;2.25;;
48881;SDS011;57063;51.406;-2.402;2023-04-03T02:41:04;10.35;;;2.58;;
48881;SDS011;57063;51.406;-2.402;2023-04-03T02:43:32;7.88;;;2.72;;
48881;SDS011;57063;51.406;-2.402;2023-04-03T02:45:57;13.02;;;3.20;;
48881;SDS011;57063;51.406;-2.402;2023-04-03T02:48:23;8.63;;;2.95;;
48881;SDS011;57063;51.406;-2.402;2023-04-03T02:50:49;5.50;;;2.25;;
48881;SDS011;57063;51.406;-2.402;2023-04-03T02:53:15;6.90;;;2.70;;
48881;SDS011;57063;51.406;-2.402;2023-04-03T02:55:40;11.40;;;2.72;;
48881;SDS011;57063;51.406;-2.402;2023-04-03T02:58:06;10.20;;;2.92;;
48881;SDS011;57063;51.406;-2.402;2023-04-03T03:00:32;7.07;;;2.63;;
48881;SDS011;57063;51.406;-2.402;2023-04-03T03:02:58;11.43;;;3.55;;
48881;SDS011;57063;51.406;-2.402;2023-04-03T03:05:24;9.70;;;2.20;;
48881;SDS011;57063;51.406;-2.402;2023-04-03T03:07:50;9.15;;;2.85;;
48881;SDS011;57063;51.406;-2.402;2023-04-03T03:10:16;9.05;;;2.55;;
48881;SDS011;57063;51.406;-2.402;2023-04-03T03:12:41;9.55;;;3.03;;
48881;SDS011;57063;51.406;-2.402;2023-04-03T03:15:07;4.95;;;2.50;;
48881;SDS011;57063;51.406;-2.402;2023-04-03T03:17:33;8.38;;;2.30;;
48881;SDS011;57063;51.406;-2.402;2023-04-03T03:19:58;9.70;;;2.65;;
48881;SDS011;57063;51.406;-2.402;2023-04-03T03:22:24;7.78;;;2.55;;
48881;SDS011;57063;51.406;-2.402;2023-04-03T03:24:51;7.43;;;2.38;;
48881;SDS011;57063;51.406;-2.402;2023-04-03T03:27:16;6.40;;;2.47;;
48881;SDS011;57063;51.406;-2.402;2023-04-03T03:29:42;6.85;;;2.33;;
48881;SDS011;57063;51.406;-2.402;2023-04-03T03:32:07;10.25;;;2.90;;
48881;SDS011;57063;51.406;-2.402;2023-04-03T03:34:33;7.13;;;2.22;;
48881;SDS011;57063;51.406;-2.402;2023-04-03T03:36:58;10.60;;;2.40;;
48881;SDS011;57063;51.406;-2.402;2023-04-03T03:39:24;6.88;;;2.20;;
48881;SDS011;57063;51.406;-2.402;2023-04-03T03:41:49;5.68;;;2.50;;
48881;SDS011;57063;51.406;-2.402;2023-04-03T03:44:15;8.32;;;2.55;;
48881;SDS011;57063;51.406;-2.402;2023-04-03T03:46:40;10.13;;;3.10;;
48881;SDS011;57063;51.406;-2.402;2023-04-03T03:49:06;6.95;;;2.17;;
48881;SDS011;57063;51.406;-2.402;2023-04-03T03:51:31;5.43;;;2.40;;
48881;SDS011;57063;51.406;-2.402;2023-04-03T03:53:56;8.52;;;2.72;;
48881;SDS011;57063;51.406;-2.402;2023-04-03T03:56:22;10.50;;;2.90;;
48881;SDS011;57063;51.406;-2.402;2023-04-03T03:58:47;10.23;;;2.42;;
48881;SDS011;57063;51.406;-2.402;2023-04-03T04:01:14;7.68;;;3.10;;
48881;SDS011;57063;51.406;-2.402;2023-04-03T04:03:40;8.52;;;2.80;;
48881;SDS011;57063;51.406;-2.402;2023-04-03T04:06:06;5.15;;;2.42;;
48881;SDS011;57063;51.406;-2.402;2023-04-03T04:08:31;8.63;;;2.63;;
48881;SDS011;57063;51.406;-2.402;2023-04-03T04:10:56;5.43;;;2.20;;
48881;SDS011;57063;51.406;-2.402;2023-04-03T04:13:22;5.03;;;2.35;;
48881;SDS011;57063;51.406;-2.402;2023-04-03T04:15:47;7.25;;;2.42;;
48881;SDS011;57063;51.406;-2.402;2023-04-03T04:18:13;5.80;;;2.80;;
48881;SDS011;57063;51.406;-2.402;2023-04-03T04:20:38;9.20;;;3.53;;
48881;SDS011;57063;51.406;-2.402;2023-04-03T04:23:03;11.00;;;2.72;;
48881;SDS011;57063;51.406;-2.402;2023-04-03T04:25:29;5.25;;;2.42;;
48881;SDS011;57063;51.406;-2.402;2023-04-03T04:27:55;14.55;;;3.78;;
48881;SDS011;57063;51.406;-2.402;2023-04-03T04:30:20;12.13;;;3.20;;
48881;SDS011;57063;51.406;-2.402;2023-04-03T04:32:45;8.55;;;2.78;;
48881;SDS011;57063;51.406;-2.402;2023-04-03T04:35:11;10.45;;;3.13;;
48881;SDS011;57063;51.406;-2.402;2023-04-03T04:37:37;7.57;;;2.47;;
48881;SDS011;57063;51.406;-2.402;2023-04-03T04:40:02;10.05;;;2.63;;
48881;SDS011;57063;51.406;-2.402;2023-04-03T04:42:28;8.88;;;3.15;;
48881;SDS011;57063;51.406;-2.402;2023-04-03T04:44:53;10.95;;;2.97;;
48881;SDS011;57063;51.406;-2.402;2023-04-03T04:47:19;10.27;;;2.75;;
48881;SDS011;57063;51.406;-2.402;2023-04-03T04:49:45;7.13;;;4.07;;
48881;SDS011;57063;51.406;-2.402;2023-04-03T04:52:12;12.55;;;4.47;;
48881;SDS011;57063;51.406;-2.402;2023-04-03T04:54:38;6.97;;;2.30;;
48881;SDS011;57063;51.406;-2.402;2023-04-03T04:57:03;12.65;;;2.88;;
48881;SDS011;57063;51.406;-2.402;2023-04-03T04:59:28;6.65;;;2.75;;
48881;SDS011;57063;51.406;-2.402;2023-04-03T05:01:54;10.50;;;3.13;;
48881;SDS011;57063;51.406;-2.402;2023-04-03T05:04:19;11.35;;;2.97;;
48881;SDS011;57063;51.406;-2.402;2023-04-03T05:06:45;7.03;;;3.28;;
48881;SDS011;57063;51.406;-2.402;2023-04-03T05:09:11;6.50;;;2.53;;
48881;SDS011;57063;51.406;-2.402;2023-04-03T05:11:37;8.38;;;2.65;;
48881;SDS011;57063;51.406;-2.402;2023-04-03T05:14:02;9.02;;;2.78;;
48881;SDS011;57063;51.406;-2.402;2023-04-03T05:16:30;13.63;;;2.20;;
48881;SDS011;57063;51.406;-2.402;2023-04-03T05:18:55;6.57;;;2.20;;
48881;SDS011;57063;51.406;-2.402;2023-04-03T05:21:21;8.38;;;2.38;;
48881;SDS011;57063;51.406;-2.402;2023-04-03T05:23:48;7.60;;;2.67;;
48881;SDS011;57063;51.406;-2.402;2023-04-03T05:26:13;5.70;;;2.45;;
48881;SDS011;57063;51.406;-2.402;2023-04-03T05:28:39;6.88;;;2.60;;
48881;SDS011;57063;51.406;-2.402;2023-04-03T05:31:04;13.02;;;2.58;;
48881;SDS011;57063;51.406;-2.402;2023-04-03T05:33:30;11.95;;;3.58;;
48881;SDS011;57063;51.406;-2.402;2023-04-03T05:35:55;10.40;;;2.53;;
48881;SDS011;57063;51.406;-2.402;2023-04-03T05:38:20;7.15;;;2.40;;
48881;SDS011;57063;51.406;-2.402;2023-04-03T05:40:46;7.95;;;2.15;;
48881;SDS011;57063;51.406;-2.402;2023-04-03T05:43:11;10.25;;;2.50;;
48881;SDS011;57063;51.406;-2.402;2023-04-03T05:45:40;7.22;;;2.22;;
48881;SDS011;57063;51.406;-2.402;2023-04-03T05:48:05;11.52;;;2.47;;
48881;SDS011;57063;51.406;-2.402;2023-04-03T05:50:30;9.98;;;2.13;;
48881;SDS011;57063;51.406;-2.402;2023-04-03T05:52:56;10.13;;;2.22;;
48881;SDS011;57063;51.406;-2.402;2023-04-03T05:55:23;7.57;;;1.88;;
48881;SDS011;57063;51.406;-2.402;2023-04-03T05:57:49;8.10;;;2.00;;
48881;SDS011;57063;51.406;-2.402;2023-04-03T06:00:15;7.25;;;1.73;;
48881;SDS011;57063;51.406;-2.402;2023-04-03T06:02:41;7.82;;;1.70;;
48881;SDS011;57063;51.406;-2.402;2023-04-03T06:05:07;10.98;;;2.45;;
48881;SDS011;57063;51.406;-2.402;2023-04-03T06:07:33;7.40;;;2.17;;
48881;SDS011;57063;51.406;-2.402;2023-04-03T06:09:59;3.22;;;2.13;;
48881;SDS011;57063;51.406;-2.402;2023-04-03T06:12:25;11.57;;;3.03;;
48881;SDS011;57063;51.406;-2.402;2023-04-03T06:14:51;8.60;;;1.90;;
48881;SDS011;57063;51.406;-2.402;2023-04-03T06:17:17;8.63;;;1.90;;
48881;SDS011;57063;51.406;-2.402;2023-04-03T06:19:43;5.47;;;1.85;;
48881;SDS011;57063;51.406;-2.402;2023-04-03T06:22:09;10.93;;;2.22;;
48881;SDS011;57063;51.406;-2.402;2023-04-03T06:24:34;5.10;;;2.03;;
48881;SDS011;57063;51.406;-2.402;2023-04-03T06:27:00;5.40;;;1.90;;
48881;SDS011;57063;51.406;-2.402;2023-04-03T06:29:25;10.55;;;2.00;;
48881;SDS011;57063;51.406;-2.402;2023-04-03T06:31:51;10.05;;;1.83;;
48881;SDS011;57063;51.406;-2.402;2023-04-03T06:34:17;13.40;;;2.95;;
48881;SDS011;57063;51.406;-2.402;2023-04-03T06:36:43;9.55;;;1.90;;
48881;SDS011;57063;51.406;-2.402;2023-04-03T06:39:13;5.97;;;1.80;;
48881;SDS011;57063;51.406;-2.402;2023-04-03T06:41:40;6.13;;;2.05;;
48881;SDS011;57063;51.406;-2.402;2023-04-03T06:44:06;11.35;;;1.85;;
48881;SDS011;57063;51.406;-2.402;2023-04-03T06:46:33;14.63;;;2.72;;
48881;SDS011;57063;51.406;-2.402;2023-04-03T06:48:58;11.23;;;2.10;;
48881;SDS011;57063;51.406;-2.402;2023-04-03T06:51:24;11.65;;;2.30;;
48881;SDS011;57063;51.406;-2.402;2023-04-03T06:53:52;16.23;;;2.35;;
48881;SDS011;57063;51.406;-2.402;2023-04-03T06:56:19;9.80;;;2.10;;
48881;SDS011;57063;51.406;-2.402;2023-04-03T06:58:45;10.07;;;1.90;;
48881;SDS011;57063;51.406;-2.402;2023-04-03T07:01:12;6.00;;;1.75;;
48881;SDS011;57063;51.406;-2.402;2023-04-03T07:03:40;9.75;;;1.92;;
48881;SDS011;57063;51.406;-2.402;2023-04-03T07:06:06;7.82;;;1.80;;
48881;SDS011;57063;51.406;-2.402;2023-04-03T07:08:33;5.38;;;1.88;;
48881;SDS011;57063;51.406;-2.402;2023-04-03T07:10:58;9.90;;;1.75;;
48881;SDS011;57063;51.406;-2.402;2023-04-03T07:13:24;5.63;;;1.83;;
48881;SDS011;57063;51.406;-2.402;2023-04-03T07:15:50;17.20;;;2.00;;
48881;SDS011;57063;51.406;-2.402;2023-04-03T07:18:16;12.18;;;2.35;;
48881;SDS011;57063;51.406;-2.402;2023-04-03T07:20:42;10.85;;;2.00;;
48881;SDS011;57063;51.406;-2.402;2023-04-03T07:23:08;8.18;;;2.03;;
48881;SDS011;57063;51.406;-2.402;2023-04-03T07:25:33;9.07;;;2.80;;
48881;SDS011;57063;51.406;-2.402;2023-04-03T07:27:59;7.07;;;1.92;;
48881;SDS011;57063;51.406;-2.402;2023-04-03T07:30:24;4.45;;;1.90;;
48881;SDS011;57063;51.406;-2.402;2023-04-03T07:32:50;14.80;;;2.70;;
48881;SDS011;57063;51.406;-2.402;2023-04-03T07:35:16;6.45;;;1.70;;
48881;SDS011;57063;51.406;-2.402;2023-04-03T07:37:42;9.13;;;2.03;;
48881;SDS011;57063;51.406;-2.402;2023-04-03T07:40:08;4.78;;;1.58;;
48881;SDS011;57063;51.406;-2.402;2023-04-03T07:42:34;14.57;;;2.10;;
48881;SDS011;57063;51.406;-2.402;2023-04-03T07:45:00;6.28;;;1.92;;
48881;SDS011;57063;51.406;-2.402;2023-04-03T07:47:26;3.45;;;1.23;;
48881;SDS011;57063;51.406;-2.402;2023-04-03T07:49:52;11.55;;;2.40;;
48881;SDS011;57063;51.406;-2.402;2023-04-03T07:52:18;9.05;;;2.10;;
48881;SDS011;57063;51.406;-2.402;2023-04-03T07:54:43;11.15;;;2.42;;
48881;SDS011;57063;51.406;-2.402;2023-04-03T07:57:08;12.20;;;2.85;;
48881;SDS011;57063;51.406;-2.402;2023-04-03T07:59:34;9.18;;;1.98;;
48881;SDS011;57063;51.406;-2.402;2023-04-03T08:02:00;7.13;;;1.65;;
48881;SDS011;57063;51.406;-2.402;2023-04-03T08:04:25;13.68;;;1.92;;
48881;SDS011;57063;51.406;-2.402;2023-04-03T08:06:52;5.20;;;1.42;;
48881;SDS011;57063;51.406;-2.402;2023-04-03T08:09:17;6.32;;;1.83;;
48881;SDS011;57063;51.406;-2.402;2023-04-03T08:11:44;14.02;;;1.70;;
48881;SDS011;57063;51.406;-2.402;2023-04-03T08:14:10;5.68;;;1.42;;
48881;SDS011;57063;51.406;-2.402;2023-04-03T08:16:41;10.65;;;1.83;;
48881;SDS011;57063;51.406;-2.402;2023-04-03T08:19:07;25.60;;;2.08;;
48881;SDS011;57063;51.406;-2.402;2023-04-03T08:21:33;7.63;;;1.65;;
48881;SDS011;57063;51.406;-2.402;2023-04-03T08:23:58;6.15;;;2.10;;
48881;SDS011;57063;51.406;-2.402;2023-04-03T08:26:24;7.43;;;1.73;;
48881;SDS011;57063;51.406;-2.402;2023-04-03T08:28:51;6.65;;;1.58;;
48881;SDS011;57063;51.406;-2.402;2023-04-03T08:31:17;7.07;;;2.05;;
48881;SDS011;57063;51.406;-2.402;2023-04-03T08:33:45;7.65;;;1.75;;
48881;SDS011;57063;51.406;-2.402;2023-04-03T08:38:47;6.60;;;1.77;;
48881;SDS011;57063;51.406;-2.402;2023-04-03T08:49:44;8.65;;;1.63;;
48881;SDS011;57063;51.406;-2.402;2023-04-03T08:52:17;8.68;;;1.40;;
48881;SDS011;57063;51.406;-2.402;2023-04-03T08:54:56;3.22;;;1.40;;
48881;SDS011;57063;51.406;-2.402;2023-04-03T08:57:30;9.30;;;1.77;;
48881;SDS011;57063;51.406;-2.402;2023-04-03T09:00:06;10.60;;;1.80;;
48881;SDS011;57063;51.406;-2.402;2023-04-03T09:02:42;6.03;;;1.52;;
48881;SDS011;57063;51.406;-2.402;2023-04-03T09:05:11;7.78;;;1.73;;
48881;SDS011;57063;51.406;-2.402;2023-04-03T09:07:42;6.28;;;1.98;;
48881;SDS011;57063;51.406;-2.402;2023-04-03T09:10:12;3.00;;;1.50;;
48881;SDS011;57063;51.406;-2.402;2023-04-03T09:12:46;12.93;;;2.30;;
48881;SDS011;57063;51.406;-2.402;2023-04-03T09:15:33;8.20;;;1.98;;
48881;SDS011;57063;51.406;-2.402;2023-04-03T09:18:00;5.00;;;1.35;;
48881;SDS011;57063;51.406;-2.402;2023-04-03T09:25:34;9.70;;;1.85;;
48881;SDS011;57063;51.406;-2.402;2023-04-03T09:28:02;6.95;;;2.13;;
48881;SDS011;57063;51.406;-2.402;2023-04-03T09:30:29;6.32;;;1.77;;
48881;SDS011;57063;51.406;-2.402;2023-04-03T09:32:56;6.35;;;1.77;;
48881;SDS011;57063;51.406;-2.402;2023-04-03T09:35:29;4.75;;;1.77;;
48881;SDS011;57063;51.406;-2.402;2023-04-03T09:38:01;7.00;;;2.03;;
48881;SDS011;57063;51.406;-2.402;2023-04-03T09:40:40;9.32;;;2.13;;
48881;SDS011;57063;51.406;-2.402;2023-04-03T09:45:42;7.30;;;2.20;;
48881;SDS011;57063;51.406;-2.402;2023-04-03T09:53:25;4.55;;;1.92;;
48881;SDS011;57063;51.406;-2.402;2023-04-03T09:55:53;7.80;;;2.58;;
48881;SDS011;57063;51.406;-2.402;2023-04-03T09:58:29;7.20;;;2.20;;
48881;SDS011;57063;51.406;-2.402;2023-04-03T10:00:58;9.32;;;2.80;;
48881;SDS011;57063;51.406;-2.402;2023-04-03T10:03:27;7.47;;;2.65;;
48881;SDS011;57063;51.406;-2.402;2023-04-03T10:05:56;7.95;;;2.42;;
48881;SDS011;57063;51.406;-2.402;2023-04-03T10:14:16;9.77;;;3.33;;
48881;SDS011;57063;51.406;-2.402;2023-04-03T10:16:41;11.20;;;2.60;;
48881;SDS011;57063;51.406;-2.402;2023-04-03T10:19:31;7.80;;;2.42;;
48881;SDS011;57063;51.406;-2.402;2023-04-03T10:25:01;6.22;;;2.65;;
48881;SDS011;57063;51.406;-2.402;2023-04-03T10:30:38;10.77;;;2.65;;
48881;SDS011;57063;51.406;-2.402;2023-04-03T10:33:34;12.25;;;2.97;;
48881;SDS011;57063;51.406;-2.402;2023-04-03T10:44:09;7.72;;;2.72;;
48881;SDS011;57063;51.406;-2.402;2023-04-03T10:46:48;9.82;;;3.00;;
48881;SDS011;57063;51.406;-2.402;2023-04-03T10:52:36;8.02;;;3.63;;
48881;SDS011;57063;51.406;-2.402;2023-04-03T10:57:55;6.60;;;2.53;;
48881;SDS011;57063;51.406;-2.402;2023-04-03T11:00:30;12.27;;;2.60;;
48881;SDS011;57063;51.406;-2.402;2023-04-03T11:03:06;11.13;;;2.70;;
48881;SDS011;57063;51.406;-2.402;2023-04-03T11:10:51;13.63;;;3.17;;
48881;SDS011;57063;51.406;-2.402;2023-04-03T11:13:26;8.43;;;3.78;;
48881;SDS011;57063;51.406;-2.402;2023-04-03T11:15:58;12.93;;;3.03;;
48881;SDS011;57063;51.406;-2.402;2023-04-03T11:23:46;11.80;;;3.42;;
48881;SDS011;57063;51.406;-2.402;2023-04-03T11:26:16;10.80;;;2.35;;
48881;SDS011;57063;51.406;-2.402;2023-04-03T11:28:44;11.88;;;2.83;;
48881;SDS011;57063;51.406;-2.402;2023-04-03T11:34:15;6.88;;;3.25;;
48881;SDS011;57063;51.406;-2.402;2023-04-03T11:37:06;9.70;;;2.65;;
48881;SDS011;57063;51.406;-2.402;2023-04-03T11:39:40;10.45;;;3.03;;
48881;SDS011;57063;51.406;-2.402;2023-04-03T11:42:33;6.57;;;2.30;;
48881;SDS011;57063;51.406;-2.402;2023-04-03T11:45:17;5.85;;;2.63;;
48881;SDS011;57063;51.406;-2.402;2023-04-03T11:47:52;8.13;;;2.50;;
48881;SDS011;57063;51.406;-2.402;2023-04-03T11:50:31;8.05;;;2.95;;
48881;SDS011;57063;51.406;-2.402;2023-04-03T12:12:34;6.90;;;2.72;;
48881;SDS011;57063;51.406;-2.402;2023-04-03T12:17:40;6.47;;;2.80;;
48881;SDS011;57063;51.406;-2.402;2023-04-03T12:23:35;7.90;;;2.50;;
48881;SDS011;57063;51.406;-2.402;2023-04-03T12:26:21;6.72;;;2.58;;
48881;SDS011;57063;51.406;-2.402;2023-04-03T12:28:51;9.18;;;2.90;;
48881;SDS011;57063;51.406;-2.402;2023-04-03T12:31:18;6.80;;;2.83;;
48881;SDS011;57063;51.406;-2.402;2023-04-03T12:36:42;7.00;;;2.75;;
48881;SDS011;57063;51.406;-2.402;2023-04-03T12:39:20;8.35;;;2.45;;
48881;SDS011;57063;51.406;-2.402;2023-04-03T12:42:04;8.63;;;2.25;;
48881;SDS011;57063;51.406;-2.402;2023-04-03T12:45:10;11.30;;;2.95;;
48881;SDS011;57063;51.406;-2.402;2023-04-03T12:47:35;5.95;;;2.10;;
48881;SDS011;57063;51.406;-2.402;2023-04-03T13:21:18;7.68;;;3.17;;
48881;SDS011;57063;51.406;-2.402;2023-04-03T13:23:48;11.82;;;3.45;;
48881;SDS011;57063;51.406;-2.402;2023-04-03T13:31:33;11.95;;;3.90;;
48881;SDS011;57063;51.406;-2.402;2023-04-03T13:34:18;6.35;;;3.30;;
48881;SDS011;57063;51.406;-2.402;2023-04-03T13:44:29;6.15;;;3.95;;
48881;SDS011;57063;51.406;-2.402;2023-04-03T13:58:37;9.77;;;5.38;;
48881;SDS011;57063;51.406;-2.402;2023-04-03T14:24:56;7.97;;;4.32;;
48881;SDS011;57063;51.406;-2.402;2023-04-03T14:32:50;8.15;;;4.40;;
48881;SDS011;57063;51.406;-2.402;2023-04-03T14:35:20;8.82;;;4.35;;
48881;SDS011;57063;51.406;-2.402;2023-04-03T14:41:03;9.75;;;4.93;;
48881;SDS011;57063;51.406;-2.402;2023-04-03T14:43:58;8.13;;;4.90;;
48881;SDS011;57063;51.406;-2.402;2023-04-03T14:50:20;13.20;;;4.70;;
48881;SDS011;57063;51.406;-2.402;2023-04-03T14:52:53;9.90;;;4.85;;
48881;SDS011;57063;51.406;-2.402;2023-04-03T14:55:21;11.10;;;4.43;;
48881;SDS011;57063;51.406;-2.402;2023-04-03T14:57:48;10.15;;;4.97;;
48881;SDS011;57063;51.406;-2.402;2023-04-03T15:00:15;10.60;;;4.25;;
48881;SDS011;57063;51.406;-2.402;2023-04-03T15:02:43;10.77;;;5.72;;
48881;SDS011;57063;51.406;-2.402;2023-04-03T15:05:12;9.27;;;5.25;;
48881;SDS011;57063;51.406;-2.402;2023-04-03T15:07:50;10.57;;;5.18;;
48881;SDS011;57063;51.406;-2.402;2023-04-03T15:10:29;11.93;;;5.80;;
48881;SDS011;57063;51.406;-2.402;2023-04-03T15:12:56;8.57;;;4.97;;
48881;SDS011;57063;51.406;-2.402;2023-04-03T15:15:23;7.45;;;5.30;;
48881;SDS011;57063;51.406;-2.402;2023-04-03T15:17:53;12.32;;;5.72;;
48881;SDS011;57063;51.406;-2.402;2023-04-03T15:20:20;9.05;;;5.32;;
48881;SDS011;57063;51.406;-2.402;2023-04-03T15:22:47;7.18;;;4.88;;
48881;SDS011;57063;51.406;-2.402;2023-04-03T15:25:15;9.82;;;4.97;;
48881;SDS011;57063;51.406;-2.402;2023-04-03T15:27:43;8.48;;;5.63;;
48881;SDS011;57063;51.406;-2.402;2023-04-03T15:30:17;7.63;;;4.85;;
48881;SDS011;57063;51.406;-2.402;2023-04-03T15:32:44;10.75;;;5.72;;
48881;SDS011;57063;51.406;-2.402;2023-04-03T15:35:10;10.00;;;5.15;;
48881;SDS011;57063;51.406;-2.402;2023-04-03T15:37:36;11.38;;;5.70;;
48881;SDS011;57063;51.406;-2.402;2023-04-03T15:42:37;9.82;;;5.60;;
48881;SDS011;57063;51.406;-2.402;2023-04-03T15:45:03;8.35;;;5.25;;
48881;SDS011;57063;51.406;-2.402;2023-04-03T15:47:29;7.75;;;4.78;;
48881;SDS011;57063;51.406;-2.402;2023-04-03T15:49:55;9.25;;;4.45;;
48881;SDS011;57063;51.406;-2.402;2023-04-03T15:52:21;7.50;;;4.70;;
48881;SDS011;57063;51.406;-2.402;2023-04-03T15:54:46;8.75;;;4.90;;
48881;SDS011;57063;51.406;-2.402;2023-04-03T15:57:12;10.13;;;4.43;;
48881;SDS011;57063;51.406;-2.402;2023-04-03T15:59:40;8.32;;;4.15;;
48881;SDS011;57063;51.406;-2.402;2023-04-03T17:32:46;9.38;;;3.10;;
48881;SDS011;57063;51.406;-2.402;2023-04-03T17:35:20;8.30;;;3.10;;
48881;SDS011;57063;51.406;-2.402;2023-04-03T17:37:46;11.20;;;4.32;;
48881;SDS011;57063;51.406;-2.402;2023-04-03T17:40:19;9.77;;;3.28;;
48881;SDS011;57063;51.406;-2.402;2023-04-03T17:42:55;8.70;;;3.72;;
48881;SDS011;57063;51.406;-2.402;2023-04-03T17:45:21;8.02;;;3.25;;
48881;SDS011;57063;51.406;-2.402;2023-04-03T17:47:50;8.95;;;2.58;;
48881;SDS011;57063;51.406;-2.402;2023-04-03T18:01:11;6.97;;;3.33;;
48881;SDS011;57063;51.406;-2.402;2023-04-03T18:03:42;6.90;;;3.67;;
48881;SDS011;57063;51.406;-2.402;2023-04-03T18:06:11;9.88;;;4.18;;
48881;SDS011;57063;51.406;-2.402;2023-04-03T18:08:47;6.10;;;2.97;;
48881;SDS011;57063;51.406;-2.402;2023-04-03T18:13:51;8.77;;;3.22;;
48881;SDS011;57063;51.406;-2.402;2023-04-03T18:16:39;7.35;;;2.67;;
48881;SDS011;57063;51.406;-2.402;2023-04-03T18:19:05;4.50;;;2.25;;
48881;SDS011;57063;51.406;-2.402;2023-04-03T20:23:20;5.65;;;4.18;;
48881;SDS011;57063;51.406;-2.402;2023-04-03T20:28:29;5.72;;;3.65;;
48881;SDS011;57063;51.406;-2.402;2023-04-03T20:57:12;5.57;;;3.28;;
48881;SDS011;57063;51.406;-2.402;2023-04-03T20:59:46;9.55;;;3.65;;
48881;SDS011;57063;51.406;-2.402;2023-04-03T21:04:55;5.05;;;3.17;;
48881;SDS011;57063;51.406;-2.402;2023-04-03T21:22:12;6.20;;;3.03;;
48881;SDS011;57063;51.406;-2.402;2023-04-03T21:25:03;10.32;;;3.80;;
